Decoded Metar for KSXS (FT RUCKER/SHELL in AL, USA) (IATA:SXS) | Meteo·Mobile Aviation Weather
aviador You're here:

KSXS Decoded Metar

FT RUCKER/SHELL in AL, USA
Report Time2018-08-22 04:58:00
UTC Time2018-08-22 05:38:16
Flight Rules vfr VFR
Wind260° at 04 kt
W.Rank260° ranks 27
Current wind is below 260° avg. (4.5)
Visibility9999 m
Phenomena:N/A
Clouds:N/A
Expected CloudBase > 400 ft AGL from Temp-Dew spread
CeilingNone
Temp25°C (ISA +11)
Dew Point24°C (94% RH)
QNH1017 hPa
Density Alt1,909 ft
Elevation400 ft
Report Wrong Elevation
Raw Report
KSXS 220458Z AUTO 26004KT 10SM CLR 25/24 A3004 RMK AO2 SLP170
T02450240=

Extra information for KSXS:More info

Metar Taf Metar & Taf Last 4 Metars F.Rules Stats Wind Profile Meteogram Temp Stats Airport Information Weather charts Add Link Nearby VenuesMetar ALERT Operation Metar Decoded Social comments

AIRNAV info for KSXS